createdAt,value
2023-10-19T00:00:34.989Z,3.35
2023-10-19T00:03:04.850Z,6.90
2023-10-19T00:05:36.780Z,5.68
2023-10-19T00:08:16.088Z,5.68
2023-10-19T00:10:49.375Z,2.83
2023-10-19T00:13:26.344Z,6.18
2023-10-19T00:15:59.771Z,7.37
2023-10-19T00:18:37.065Z,5.05
2023-10-19T00:21:12.762Z,3.95
2023-10-19T00:24:00.049Z,5.65
2023-10-19T00:26:32.088Z,5.68
2023-10-19T00:29:15.770Z,4.83
2023-10-19T00:31:45.816Z,4.70
2023-10-19T00:34:25.128Z,6.40
2023-10-19T00:36:57.849Z,7.45
2023-10-19T00:39:30.913Z,4.70
2023-10-19T00:42:04.917Z,2.93
2023-10-19T00:44:43.615Z,8.43
2023-10-19T00:47:15.247Z,8.20
2023-10-19T00:49:45.479Z,7.40
2023-10-19T00:52:25.081Z,5.30
2023-10-19T00:55:02.649Z,6.73
2023-10-19T00:57:38.562Z,5.80
2023-10-19T01:00:13.964Z,4.25
2023-10-19T01:03:01.547Z,5.63
2023-10-19T01:05:39.475Z,4.22
2023-10-19T01:08:25.244Z,7.17
2023-10-19T01:10:56.368Z,4.28
2023-10-19T01:13:35.720Z,6.15
2023-10-19T01:16:17.438Z,7.30
2023-10-19T01:18:47.292Z,7.25
2023-10-19T01:21:20.082Z,4.70
2023-10-19T01:23:56.598Z,3.50
2023-10-19T01:26:27.875Z,3.45
2023-10-19T01:29:04.048Z,4.82
2023-10-19T01:31:40.077Z,3.47
2023-10-19T01:34:10.937Z,4.43
2023-10-19T01:36:43.698Z,5.13
2023-10-19T01:39:23.445Z,5.72
2023-10-19T01:41:56.197Z,7.30
2023-10-19T01:44:29.010Z,1.80
2023-10-19T01:47:03.657Z,7.43
2023-10-19T01:49:31.588Z,4.28
2023-10-19T01:52:17.824Z,5.55
2023-10-19T01:54:57.275Z,7.78
2023-10-19T01:57:54.759Z,9.48
2023-10-19T02:00:26.491Z,6.80
2023-10-19T02:03:29.175Z,7.80
2023-10-19T02:06:04.469Z,7.18
2023-10-19T02:08:39.682Z,6.65
2023-10-19T02:11:21.004Z,8.10
2023-10-19T02:13:55.069Z,5.90
2023-10-19T02:16:26.694Z,7.28
2023-10-19T02:18:54.947Z,5.65
2023-10-19T02:21:44.329Z,7.97
2023-10-19T02:24:15.600Z,7.03
2023-10-19T02:26:48.287Z,7.93
2023-10-19T02:29:18.781Z,5.85
2023-10-19T02:31:57.238Z,5.35
2023-10-19T02:34:36.061Z,7.00
2023-10-19T02:37:06.354Z,4.82
2023-10-19T02:39:47.486Z,5.37
2023-10-19T02:42:23.457Z,4.65
2023-10-19T02:45:03.135Z,6.30
2023-10-19T02:47:57.911Z,9.40
2023-10-19T02:50:27.830Z,6.35
2023-10-19T02:52:57.601Z,7.23
2023-10-19T02:55:36.531Z,19.10
2023-10-19T02:58:21.253Z,14.43
2023-10-19T03:01:01.594Z,10.45
2023-10-19T03:03:35.178Z,13.90
2023-10-19T03:06:07.858Z,18.33
2023-10-19T03:08:43.951Z,16.58
2023-10-19T03:14:00.008Z,12.13
2023-10-19T03:16:32.325Z,13.68
2023-10-19T03:19:05.634Z,9.50
2023-10-19T03:21:44.729Z,18.13
2023-10-19T03:24:37.231Z,16.08
2023-10-19T03:27:14.142Z,16.70
2023-10-19T03:29:49.184Z,16.52
2023-10-19T03:32:35.815Z,11.17
2023-10-19T03:35:19.036Z,14.88
2023-10-19T03:37:53.163Z,9.02
2023-10-19T03:40:31.120Z,12.13
2023-10-19T03:43:25.818Z,11.38
2023-10-19T03:49:12.531Z,11.52
2023-10-19T03:52:00.537Z,13.55
2023-10-19T03:54:34.283Z,12.25
2023-10-19T03:57:12.881Z,12.40
2023-10-19T03:59:42.564Z,16.37
2023-10-19T04:02:15.062Z,18.02
2023-10-19T04:04:45.760Z,17.23
2023-10-19T04:07:25.531Z,20.55
2023-10-19T04:10:11.573Z,18.25
2023-10-19T04:12:44.118Z,12.70
2023-10-19T04:15:17.073Z,16.30
2023-10-19T04:17:54.356Z,21.73
2023-10-19T04:20:37.257Z,16.67
2023-10-19T04:23:12.206Z,26.75
2023-10-19T04:25:42.149Z,19.80
2023-10-19T04:28:11.773Z,22.13
2023-10-19T04:30:40.522Z,19.85
2023-10-19T04:33:11.607Z,15.27
2023-10-19T04:35:42.630Z,11.35
2023-10-19T04:38:12.304Z,17.53
2023-10-19T04:40:41.304Z,16.50
2023-10-19T04:43:10.124Z,22.48
2023-10-19T04:45:42.726Z,24.05
2023-10-19T04:48:13.282Z,22.45
2023-10-19T04:50:43.188Z,20.50
2023-10-19T04:53:16.940Z,23.67
2023-10-19T04:55:49.813Z,26.40
2023-10-19T04:58:19.973Z,23.45
2023-10-19T05:00:51.833Z,21.73
2023-10-19T05:03:34.838Z,34.27
2023-10-19T05:06:03.940Z,31.77
2023-10-19T05:08:34.191Z,24.17
2023-10-19T05:11:03.829Z,24.98
2023-10-19T05:13:35.145Z,24.92
2023-10-19T05:16:04.275Z,12.57
2023-10-19T05:18:35.345Z,8.45
2023-10-19T05:21:06.988Z,13.88
2023-10-19T05:23:37.763Z,12.00
2023-10-19T05:26:08.040Z,11.13
2023-10-19T05:28:37.078Z,11.37
2023-10-19T05:31:06.526Z,7.07
2023-10-19T05:33:36.644Z,7.07
2023-10-19T05:36:06.372Z,8.68
2023-10-19T05:38:35.740Z,11.88
2023-10-19T05:41:05.066Z,11.10
2023-10-19T05:43:36.106Z,5.47
2023-10-19T05:46:05.851Z,4.90
2023-10-19T05:48:36.128Z,12.32
2023-10-19T05:51:06.566Z,11.48
2023-10-19T05:53:35.337Z,10.57
2023-10-19T05:56:04.125Z,9.52
2023-10-19T05:58:32.925Z,7.57
2023-10-19T06:01:02.038Z,7.13
2023-10-19T06:03:30.991Z,8.30
2023-10-19T06:06:01.694Z,7.73
2023-10-19T06:08:32.501Z,7.50
2023-10-19T06:11:02.149Z,6.70
2023-10-19T06:13:31.638Z,8.10
2023-10-19T06:16:00.517Z,7.43
2023-10-19T06:18:30.623Z,8.17
2023-10-19T06:21:00.907Z,7.47
2023-10-19T06:23:29.625Z,8.02
2023-10-19T06:25:58.477Z,8.18
2023-10-19T06:28:27.706Z,9.20
2023-10-19T06:30:56.575Z,9.63
2023-10-19T06:33:25.423Z,8.45
2023-10-19T06:35:54.211Z,7.97
2023-10-19T06:38:24.359Z,9.25
2023-10-19T06:40:53.499Z,8.85
2023-10-19T06:43:24.953Z,9.17
2023-10-19T06:45:53.972Z,8.13
2023-10-19T06:48:22.834Z,8.93
2023-10-19T06:50:52.875Z,9.68
2023-10-19T06:53:23.553Z,10.80
2023-10-19T06:55:52.473Z,12.70
2023-10-19T06:58:21.672Z,10.63
2023-10-19T07:00:57.858Z,10.82
2023-10-19T07:03:29.482Z,11.63
2023-10-19T07:05:59.551Z,13.98
2023-10-19T07:08:30.169Z,10.87
2023-10-19T07:10:58.962Z,11.07
2023-10-19T07:13:28.701Z,11.88
2023-10-19T07:15:57.731Z,11.52
2023-10-19T07:18:26.577Z,11.30
2023-10-19T07:21:01.838Z,8.83
2023-10-19T07:23:32.749Z,12.73
2023-10-19T07:26:02.120Z,9.23
2023-10-19T07:28:32.706Z,9.57
2023-10-19T07:31:01.966Z,8.82
2023-10-19T07:33:31.862Z,9.07
2023-10-19T07:36:02.283Z,7.32
2023-10-19T07:38:36.085Z,7.18
2023-10-19T07:41:07.094Z,6.20
2023-10-19T07:43:35.963Z,7.70
2023-10-19T07:46:04.877Z,6.10
2023-10-19T07:48:33.845Z,8.20
2023-10-19T07:51:02.791Z,8.95
2023-10-19T07:53:33.179Z,8.10
2023-10-19T07:56:01.984Z,7.72
2023-10-19T07:58:31.785Z,7.23
2023-10-19T08:01:00.557Z,6.20
2023-10-19T08:03:29.375Z,7.82
2023-10-19T08:05:58.164Z,9.43
2023-10-19T08:08:35.248Z,7.93
2023-10-19T08:11:06.682Z,6.03
2023-10-19T08:13:35.674Z,7.60
2023-10-19T08:16:04.863Z,7.03
2023-10-19T08:18:33.736Z,6.10
2023-10-19T08:21:02.726Z,3.97
2023-10-19T08:23:32.836Z,7.67
2023-10-19T08:26:02.076Z,5.32
2023-10-19T08:28:33.617Z,7.05
2023-10-19T08:31:06.345Z,4.57
2023-10-19T08:33:40.036Z,5.78
2023-10-19T08:36:18.392Z,6.60
2023-10-19T08:38:47.108Z,7.97
2023-10-19T08:41:16.909Z,6.80
2023-10-19T08:43:47.307Z,5.65
2023-10-19T08:46:16.342Z,9.10
2023-10-19T08:48:45.886Z,6.47
2023-10-19T08:51:17.750Z,4.18
2023-10-19T08:53:47.817Z,7.18
2023-10-19T08:56:18.981Z,5.43
2023-10-19T08:58:49.232Z,7.80
2023-10-19T09:01:21.106Z,5.30
2023-10-19T09:03:50.790Z,5.43
2023-10-19T09:06:19.855Z,6.32
2023-10-19T09:08:50.452Z,7.72
2023-10-19T09:11:21.707Z,6.82
2023-10-19T09:13:54.092Z,6.97
2023-10-19T09:16:24.922Z,7.57
2023-10-19T09:18:53.956Z,6.38
2023-10-19T09:21:26.418Z,7.93
2023-10-19T09:23:58.655Z,7.05
2023-10-19T09:26:28.124Z,7.20
2023-10-19T09:28:58.357Z,5.78
2023-10-19T09:31:28.457Z,6.68
2023-10-19T09:33:59.161Z,5.82
2023-10-19T09:36:31.214Z,7.00
2023-10-19T09:39:01.826Z,5.37
2023-10-19T09:41:33.053Z,4.32
2023-10-19T09:44:12.095Z,4.43
2023-10-19T09:46:43.328Z,5.60
2023-10-19T09:49:14.718Z,6.88
2023-10-19T09:51:55.631Z,5.33
2023-10-19T09:54:52.765Z,4.85
2023-10-19T09:57:33.465Z,6.30
2023-10-19T10:00:13.231Z,6.18
2023-10-19T10:02:47.219Z,8.15
2023-10-19T10:05:49.957Z,6.10
2023-10-19T10:08:38.607Z,4.88
2023-10-19T10:11:21.314Z,6.45
2023-10-19T10:13:54.544Z,5.75
2023-10-19T10:16:31.141Z,7.68
2023-10-19T10:19:02.214Z,4.97
2023-10-19T10:21:32.312Z,4.68
2023-10-19T10:24:04.287Z,5.50
2023-10-19T10:27:00.105Z,5.13
2023-10-19T10:29:32.260Z,4.72
2023-10-19T10:32:02.819Z,5.97
2023-10-19T10:34:50.362Z,4.20
2023-10-19T10:37:22.127Z,4.90
2023-10-19T10:39:51.998Z,4.55
2023-10-19T10:42:21.295Z,4.47
2023-10-19T10:44:57.344Z,3.90
2023-10-19T10:47:31.095Z,3.88
2023-10-19T10:50:02.915Z,3.47
2023-10-19T10:52:38.749Z,5.07
2023-10-19T10:55:12.432Z,4.40
2023-10-19T10:57:42.837Z,2.63
2023-10-19T11:00:16.703Z,3.08
2023-10-19T11:02:50.695Z,4.18
2023-10-19T11:05:25.565Z,4.65
2023-10-19T11:08:10.670Z,4.10
2023-10-19T11:10:43.588Z,5.27
2023-10-19T11:13:15.551Z,3.38
2023-10-19T11:15:52.747Z,5.25
2023-10-19T11:18:36.712Z,2.47
2023-10-19T11:21:11.018Z,4.78
2023-10-19T11:23:46.834Z,3.47
2023-10-19T11:26:25.646Z,3.13
2023-10-19T11:29:00.355Z,2.53
2023-10-19T11:31:38.673Z,3.35
2023-10-19T11:34:10.111Z,4.95
2023-10-19T11:36:39.859Z,2.83
2023-10-19T11:39:13.302Z,1.80
2023-10-19T11:41:42.249Z,5.47
2023-10-19T11:44:11.107Z,5.75
2023-10-19T11:46:39.861Z,2.63
2023-10-19T11:49:10.519Z,4.80
2023-10-19T11:51:39.236Z,2.38
2023-10-19T11:54:08.115Z,2.63
2023-10-19T11:56:36.902Z,3.75
2023-10-19T11:59:05.678Z,3.95
2023-10-19T12:01:34.538Z,3.60
2023-10-19T12:04:04.113Z,5.05
2023-10-19T12:06:34.897Z,4.50
2023-10-19T12:09:15.892Z,3.75
2023-10-19T12:11:47.849Z,3.50
2023-10-19T12:14:17.656Z,4.23
2023-10-19T12:16:47.167Z,6.85
2023-10-19T12:19:18.591Z,3.90
2023-10-19T12:21:50.912Z,4.47
2023-10-19T12:24:21.656Z,2.15
2023-10-19T12:26:50.432Z,3.90
2023-10-19T12:29:23.955Z,4.18
2023-10-19T12:31:52.751Z,2.30
2023-10-19T12:34:20.482Z,3.22
2023-10-19T12:36:52.359Z,2.78
2023-10-19T12:39:34.936Z,1.73
2023-10-19T12:42:04.705Z,3.08
2023-10-19T12:44:40.311Z,2.80
2023-10-19T12:47:14.099Z,3.30
2023-10-19T12:49:46.409Z,1.58
2023-10-19T12:52:16.718Z,5.20
2023-10-19T12:54:49.345Z,2.75
2023-10-19T12:57:18.137Z,2.63
2023-10-19T12:59:47.274Z,2.85
2023-10-19T13:02:16.542Z,2.25
2023-10-19T13:04:49.760Z,3.80
2023-10-19T13:07:21.027Z,1.60
2023-10-19T13:09:50.394Z,2.15
2023-10-19T13:12:24.581Z,2.50
2023-10-19T13:14:53.651Z,3.33
2023-10-19T13:17:22.422Z,3.13
2023-10-19T13:19:52.729Z,2.70
2023-10-19T13:22:22.919Z,6.40
2023-10-19T13:24:51.586Z,2.10
2023-10-19T13:27:20.556Z,2.97
2023-10-19T13:29:49.189Z,1.73
2023-10-19T13:32:18.497Z,4.20
2023-10-19T13:34:48.285Z,2.10
2023-10-19T13:37:17.138Z,3.22
2023-10-19T13:39:47.256Z,2.40
2023-10-19T13:42:15.935Z,4.27
2023-10-19T13:45:03.368Z,3.83
2023-10-19T13:47:34.933Z,3.20
2023-10-19T13:50:04.369Z,2.65
2023-10-19T13:52:33.334Z,2.08
2023-10-19T13:55:04.634Z,3.07
2023-10-19T13:57:33.438Z,1.65
2023-10-19T14:00:02.387Z,3.55
2023-10-19T14:02:34.445Z,2.78
2023-10-19T14:05:03.719Z,2.00
2023-10-19T14:07:33.851Z,1.83
2023-10-19T14:10:05.633Z,1.58
2023-10-19T14:12:34.557Z,5.75
2023-10-19T14:15:04.560Z,2.70
2023-10-19T14:17:33.983Z,1.40
2023-10-19T14:20:02.804Z,3.67
2023-10-19T14:22:35.644Z,3.30
2023-10-19T14:25:08.567Z,1.45
2023-10-19T14:27:37.203Z,2.47
2023-10-19T14:30:07.746Z,5.13
2023-10-19T14:32:36.785Z,4.63
2023-10-19T14:35:07.345Z,1.83
2023-10-19T14:37:36.032Z,3.80
2023-10-19T14:40:10.915Z,2.15
2023-10-19T14:42:41.421Z,4.68
2023-10-19T14:45:14.897Z,4.30
2023-10-19T14:47:44.318Z,4.47
2023-10-19T14:50:15.200Z,2.70
2023-10-19T14:52:44.895Z,2.03
2023-10-19T14:55:19.870Z,3.13
2023-10-19T14:57:56.017Z,2.30
2023-10-19T15:00:35.114Z,5.05
2023-10-19T15:03:09.093Z,3.63
2023-10-19T15:05:39.792Z,2.28
2023-10-19T15:08:10.806Z,4.22
2023-10-19T15:10:44.715Z,4.50
2023-10-19T15:13:13.680Z,3.25
2023-10-19T15:15:42.460Z,3.20
2023-10-19T15:18:11.275Z,4.25
2023-10-19T15:20:40.030Z,5.20
2023-10-19T15:23:09.213Z,2.70
2023-10-19T15:25:41.368Z,4.03
2023-10-19T15:28:12.417Z,4.03
2023-10-19T15:30:45.131Z,4.05
2023-10-19T15:33:15.993Z,4.00
2023-10-19T15:35:49.977Z,4.60
2023-10-19T15:38:18.706Z,2.55
2023-10-19T15:40:47.447Z,2.80
2023-10-19T15:43:18.248Z,3.67
2023-10-19T15:45:50.740Z,1.75
2023-10-19T15:48:20.518Z,5.53
2023-10-19T15:50:49.253Z,4.30
2023-10-19T15:53:18.497Z,3.67
2023-10-19T15:55:48.284Z,3.10
2023-10-19T15:58:21.499Z,2.10
2023-10-19T16:00:50.614Z,2.50
2023-10-19T16:03:22.148Z,2.15
2023-10-19T16:05:51.254Z,3.50
2023-10-19T16:08:20.008Z,2.42
2023-10-19T16:10:55.153Z,4.95
2023-10-19T16:13:25.401Z,2.67
2023-10-19T16:15:54.470Z,3.42
2023-10-19T16:18:23.412Z,2.70
2023-10-19T16:20:52.350Z,2.13
2023-10-19T16:23:21.224Z,1.30
2023-10-19T16:25:50.099Z,2.40
2023-10-19T16:28:25.966Z,3.72
2023-10-19T16:30:56.639Z,2.00
2023-10-19T16:33:25.389Z,3.38
2023-10-19T16:35:56.081Z,3.38
2023-10-19T16:38:25.186Z,1.20
2023-10-19T16:41:02.083Z,3.17
2023-10-19T16:43:30.865Z,1.90
2023-10-19T16:46:02.470Z,2.15
2023-10-19T16:48:31.565Z,2.65
2023-10-19T16:51:03.858Z,3.57
2023-10-19T16:53:33.759Z,2.88
2023-10-19T16:56:03.199Z,3.72
2023-10-19T16:58:32.406Z,2.40
2023-10-19T17:01:06.814Z,4.20
2023-10-19T17:03:36.851Z,5.80
2023-10-19T17:06:06.388Z,3.00
2023-10-19T17:08:37.956Z,5.80
2023-10-19T17:11:15.498Z,4.75
2023-10-19T17:13:44.711Z,4.47
2023-10-19T17:16:33.166Z,5.33
2023-10-19T17:19:02.052Z,3.38
2023-10-19T17:21:33.207Z,2.13
2023-10-19T17:24:18.676Z,3.17
2023-10-19T17:26:56.241Z,2.70
2023-10-19T17:29:40.344Z,5.40
2023-10-19T17:32:10.916Z,3.38
2023-10-19T17:34:39.637Z,3.53
2023-10-19T17:37:10.640Z,2.50
2023-10-19T17:39:44.498Z,2.83
2023-10-19T17:42:14.319Z,4.07
2023-10-19T17:44:42.981Z,4.53
2023-10-19T17:47:13.712Z,3.45
2023-10-19T17:49:43.000Z,4.47
2023-10-19T17:52:11.910Z,2.75
2023-10-19T17:54:40.627Z,4.17
2023-10-19T17:57:28.921Z,3.03
2023-10-19T17:59:57.777Z,2.85
2023-10-19T18:02:28.617Z,4.60
2023-10-19T18:05:04.934Z,5.70
2023-10-19T18:07:34.064Z,2.57
2023-10-19T18:10:03.288Z,6.10
2023-10-19T18:12:36.587Z,3.75
2023-10-19T18:15:18.087Z,5.03
2023-10-19T18:17:48.233Z,7.90
2023-10-19T18:20:17.382Z,3.43
2023-10-19T18:22:46.218Z,10.07
2023-10-19T18:25:17.092Z,9.60
2023-10-19T18:27:45.795Z,3.33
2023-10-19T18:30:16.370Z,3.88
2023-10-19T18:32:45.204Z,2.97
2023-10-19T18:35:15.615Z,9.82
2023-10-19T18:37:44.468Z,5.38
2023-10-19T18:40:14.832Z,3.58
2023-10-19T18:42:43.686Z,6.10
2023-10-19T18:45:12.643Z,4.63
2023-10-19T18:47:42.478Z,2.17
2023-10-19T18:50:29.894Z,4.22
2023-10-19T18:53:04.766Z,2.83
2023-10-19T18:55:33.850Z,2.90
2023-10-19T18:58:04.093Z,5.00
2023-10-19T19:00:34.186Z,3.28
2023-10-19T19:03:03.272Z,3.47
2023-10-19T19:05:32.366Z,3.47
2023-10-19T19:08:02.697Z,3.13
2023-10-19T19:10:34.487Z,2.33
2023-10-19T19:13:03.915Z,3.40
2023-10-19T19:15:34.378Z,2.95
2023-10-19T19:18:03.863Z,2.08
2023-10-19T19:20:33.571Z,2.88
2023-10-19T19:23:06.675Z,2.03
2023-10-19T19:25:35.546Z,2.85
2023-10-19T19:28:04.428Z,4.50
2023-10-19T19:30:34.585Z,4.63
2023-10-19T19:33:03.399Z,3.53
2023-10-19T19:35:32.117Z,1.53
2023-10-19T19:38:01.008Z,3.08
2023-10-19T19:40:31.648Z,0.85
2023-10-19T19:43:00.927Z,3.90
2023-10-19T19:45:38.734Z,3.00
2023-10-19T19:48:16.009Z,3.50
2023-10-19T19:50:44.820Z,5.55
2023-10-19T19:53:16.197Z,2.28
2023-10-19T19:55:47.897Z,2.17
2023-10-19T19:58:17.707Z,1.90
2023-10-19T20:00:46.430Z,3.10
2023-10-19T20:03:15.487Z,4.05
2023-10-19T20:05:44.389Z,4.00
2023-10-19T20:08:14.265Z,2.22
2023-10-19T20:10:48.303Z,4.43
2023-10-19T20:13:17.428Z,1.67
2023-10-19T20:15:46.854Z,2.80
2023-10-19T20:18:16.674Z,2.05
2023-10-19T20:20:46.097Z,2.47
2023-10-19T20:23:15.670Z,3.90
2023-10-19T20:25:44.430Z,6.03
2023-10-19T20:28:14.975Z,2.45
2023-10-19T20:30:43.855Z,3.78
2023-10-19T20:33:13.462Z,0.85
2023-10-19T20:35:45.533Z,1.83
2023-10-19T20:38:22.895Z,2.73
2023-10-19T20:40:55.836Z,2.35
2023-10-19T20:43:44.330Z,0.93
2023-10-19T20:46:13.078Z,2.83
2023-10-19T20:48:42.677Z,1.27
2023-10-19T20:51:18.963Z,0.70
2023-10-19T20:53:47.756Z,1.90
2023-10-19T20:56:16.703Z,2.67
2023-10-19T20:58:47.317Z,1.45
2023-10-19T21:01:18.582Z,3.78
2023-10-19T21:03:48.926Z,0.93
2023-10-19T21:06:19.683Z,7.72
2023-10-19T21:08:48.485Z,5.75
2023-10-19T21:11:18.827Z,4.03
2023-10-19T21:13:50.930Z,1.60
2023-10-19T21:16:22.704Z,4.53
2023-10-19T21:18:56.709Z,2.55
2023-10-19T21:21:37.149Z,2.28
2023-10-19T21:24:15.414Z,3.85
2023-10-19T21:27:12.321Z,6.25
2023-10-19T21:29:42.478Z,2.43
2023-10-19T21:32:11.288Z,1.83
2023-10-19T21:34:40.321Z,2.45
2023-10-19T21:39:54.512Z,2.55
2023-10-19T21:42:23.273Z,4.93
2023-10-19T21:44:53.619Z,3.45
2023-10-19T21:47:24.222Z,4.82
2023-10-19T21:49:54.656Z,2.38
2023-10-19T21:52:25.154Z,3.47
2023-10-19T21:54:55.283Z,4.13
2023-10-19T21:57:24.345Z,4.30
2023-10-19T21:59:54.420Z,3.13
2023-10-19T22:02:23.386Z,4.93
2023-10-19T22:04:52.276Z,2.85
2023-10-19T22:07:22.275Z,3.43
2023-10-19T22:09:51.293Z,6.80
2023-10-19T22:12:21.204Z,2.22
2023-10-19T22:14:50.713Z,4.30
2023-10-19T22:17:20.940Z,6.53
2023-10-19T22:19:49.605Z,4.13
2023-10-19T22:22:18.521Z,5.80
2023-10-19T22:24:47.258Z,6.65
2023-10-19T22:27:16.212Z,5.38
2023-10-19T22:29:45.183Z,4.40
2023-10-19T22:32:15.008Z,3.00
2023-10-19T22:34:45.161Z,7.00
2023-10-19T22:37:13.849Z,2.92
2023-10-19T22:39:43.485Z,3.95
2023-10-19T22:42:12.571Z,7.43
2023-10-19T22:44:41.279Z,5.53
2023-10-19T22:47:10.325Z,3.15
2023-10-19T22:49:39.647Z,2.83
2023-10-19T22:52:12.983Z,6.38
2023-10-19T22:54:44.404Z,4.10
2023-10-19T22:57:14.621Z,7.03
2023-10-19T22:59:56.549Z,2.63
2023-10-19T23:02:36.438Z,4.97
2023-10-19T23:05:17.083Z,1.23
2023-10-19T23:07:53.589Z,3.50
2023-10-19T23:10:29.445Z,1.47
2023-10-19T23:12:59.210Z,1.90
2023-10-19T23:15:38.009Z,1.58
2023-10-19T23:18:12.632Z,3.45
2023-10-19T23:20:43.364Z,4.32
2023-10-19T23:23:14.141Z,1.97
2023-10-19T23:25:52.912Z,1.77
2023-10-19T23:28:22.961Z,4.82
2023-10-19T23:30:52.062Z,1.05
2023-10-19T23:33:20.785Z,2.00
2023-10-19T23:35:50.709Z,1.30
2023-10-19T23:38:20.826Z,2.33
2023-10-19T23:40:51.557Z,3.03
2023-10-19T23:43:20.656Z,3.50
2023-10-19T23:45:51.237Z,2.53
2023-10-19T23:48:21.579Z,0.97
2023-10-19T23:50:51.962Z,1.58
2023-10-19T23:53:25.662Z,2.17
2023-10-19T23:55:54.946Z,2.92
2023-10-19T23:58:23.702Z,4.32
